sensor_id;sensor_type;location;lat;lon;timestamp;temperature;humidity
3134;DHT22;1577;49.912;10.924;2024-01-15T00:01:47;-1.80;99.90
3134;DHT22;1577;49.912;10.924;2024-01-15T00:04:13;-1.70;99.90
3134;DHT22;1577;49.912;10.924;2024-01-15T00:06:39;-1.80;99.90
3134;DHT22;1577;49.912;10.924;2024-01-15T00:09:04;-1.90;99.90
3134;DHT22;1577;49.912;10.924;2024-01-15T00:11:32;-1.80;99.90
3134;DHT22;1577;49.912;10.924;2024-01-15T00:13:57;-1.80;99.90
3134;DHT22;1577;49.912;10.924;2024-01-15T00:16:23;-1.80;99.90
3134;DHT22;1577;49.912;10.924;2024-01-15T00:18:48;-1.70;99.90
3134;DHT22;1577;49.912;10.924;2024-01-15T00:21:14;-1.70;99.90
3134;DHT22;1577;49.912;10.924;2024-01-15T00:23:43;-1.70;99.90
3134;DHT22;1577;49.912;10.924;2024-01-15T00:26:09;-1.80;99.90
3134;DHT22;1577;49.912;10.924;2024-01-15T00:28:36;-1.90;99.90
3134;DHT22;1577;49.912;10.924;2024-01-15T00:31:02;-1.90;99.90
3134;DHT22;1577;49.912;10.924;2024-01-15T00:33:28;-1.80;99.90
3134;DHT22;1577;49.912;10.924;2024-01-15T00:35:53;-1.80;99.90
3134;DHT22;1577;49.912;10.924;2024-01-15T00:38:19;-1.80;99.90
3134;DHT22;1577;49.912;10.924;2024-01-15T00:40:45;-1.70;99.90
3134;DHT22;1577;49.912;10.924;2024-01-15T00:43:11;-1.90;99.90
3134;DHT22;1577;49.912;10.924;2024-01-15T00:45:37;-1.90;99.90
3134;DHT22;1577;49.912;10.924;2024-01-15T00:48:03;-1.80;99.90
3134;DHT22;1577;49.912;10.924;2024-01-15T00:50:29;-1.70;99.90
3134;DHT22;1577;49.912;10.924;2024-01-15T00:52:55;-1.70;99.90
3134;DHT22;1577;49.912;10.924;2024-01-15T00:55:20;-1.80;99.90
3134;DHT22;1577;49.912;10.924;2024-01-15T00:57:46;-1.80;99.90
3134;DHT22;1577;49.912;10.924;2024-01-15T01:00:12;-1.70;99.90
3134;DHT22;1577;49.912;10.924;2024-01-15T01:02:38;-1.70;99.90
3134;DHT22;1577;49.912;10.924;2024-01-15T01:05:03;-1.80;99.90
3134;DHT22;1577;49.912;10.924;2024-01-15T01:07:29;-1.90;99.90
3134;DHT22;1577;49.912;10.924;2024-01-15T01:09:55;-1.70;99.90
3134;DHT22;1577;49.912;10.924;2024-01-15T01:12:21;-1.80;99.90
3134;DHT22;1577;49.912;10.924;2024-01-15T01:14:46;-1.70;99.90
3134;DHT22;1577;49.912;10.924;2024-01-15T01:17:12;-1.70;99.90
3134;DHT22;1577;49.912;10.924;2024-01-15T01:19:37;-1.70;99.90
3134;DHT22;1577;49.912;10.924;2024-01-15T01:22:03;-1.80;99.90
3134;DHT22;1577;49.912;10.924;2024-01-15T01:24:29;-1.80;99.90
3134;DHT22;1577;49.912;10.924;2024-01-15T01:26:54;-1.80;99.90
3134;DHT22;1577;49.912;10.924;2024-01-15T01:29:20;-1.80;99.90
3134;DHT22;1577;49.912;10.924;2024-01-15T01:31:46;-1.80;99.90
3134;DHT22;1577;49.912;10.924;2024-01-15T01:34:15;-1.80;99.90
3134;DHT22;1577;49.912;10.924;2024-01-15T01:36:40;-1.80;99.90
3134;DHT22;1577;49.912;10.924;2024-01-15T01:39:06;-1.70;99.90
3134;DHT22;1577;49.912;10.924;2024-01-15T01:41:31;-1.70;99.90
3134;DHT22;1577;49.912;10.924;2024-01-15T01:43:57;-1.80;99.90
3134;DHT22;1577;49.912;10.924;2024-01-15T01:46:24;-1.80;99.90
3134;DHT22;1577;49.912;10.924;2024-01-15T01:48:51;-1.80;99.90
3134;DHT22;1577;49.912;10.924;2024-01-15T01:51:17;-1.80;99.90
3134;DHT22;1577;49.912;10.924;2024-01-15T01:53:44;-1.90;99.90
3134;DHT22;1577;49.912;10.924;2024-01-15T01:56:10;-1.80;99.90
3134;DHT22;1577;49.912;10.924;2024-01-15T01:58:37;-1.80;99.90
3134;DHT22;1577;49.912;10.924;2024-01-15T02:01:03;-1.90;99.90
3134;DHT22;1577;49.912;10.924;2024-01-15T02:03:30;-1.90;99.90
3134;DHT22;1577;49.912;10.924;2024-01-15T02:05:56;-1.80;99.90
3134;DHT22;1577;49.912;10.924;2024-01-15T02:08:22;-1.80;99.90
3134;DHT22;1577;49.912;10.924;2024-01-15T02:10:48;-1.90;99.90
3134;DHT22;1577;49.912;10.924;2024-01-15T02:13:14;-1.80;99.90
3134;DHT22;1577;49.912;10.924;2024-01-15T02:15:40;-1.70;99.90
3134;DHT22;1577;49.912;10.924;2024-01-15T02:18:06;-1.70;99.90
3134;DHT22;1577;49.912;10.924;2024-01-15T02:20:33;-1.70;99.90
3134;DHT22;1577;49.912;10.924;2024-01-15T02:23:17;-1.70;99.90
3134;DHT22;1577;49.912;10.924;2024-01-15T02:25:45;-1.60;99.90
3134;DHT22;1577;49.912;10.924;2024-01-15T02:28:12;-1.80;99.90
3134;DHT22;1577;49.912;10.924;2024-01-15T02:30:39;-1.70;99.90
3134;DHT22;1577;49.912;10.924;2024-01-15T02:33:06;-1.70;99.90
3134;DHT22;1577;49.912;10.924;2024-01-15T02:35:32;-1.70;99.90
3134;DHT22;1577;49.912;10.924;2024-01-15T02:37:58;-1.70;99.90
3134;DHT22;1577;49.912;10.924;2024-01-15T02:40:24;-1.60;99.90
3134;DHT22;1577;49.912;10.924;2024-01-15T02:42:50;-1.60;99.90
3134;DHT22;1577;49.912;10.924;2024-01-15T02:45:15;-1.70;99.90
3134;DHT22;1577;49.912;10.924;2024-01-15T02:47:41;-1.60;99.90
3134;DHT22;1577;49.912;10.924;2024-01-15T02:50:07;-1.60;99.90
3134;DHT22;1577;49.912;10.924;2024-01-15T02:52:32;-1.70;99.90
3134;DHT22;1577;49.912;10.924;2024-01-15T02:54:58;-1.70;99.90
3134;DHT22;1577;49.912;10.924;2024-01-15T02:57:23;-1.60;99.90
3134;DHT22;1577;49.912;10.924;2024-01-15T02:59:49;-1.60;99.90
3134;DHT22;1577;49.912;10.924;2024-01-15T03:02:14;-1.50;99.90
3134;DHT22;1577;49.912;10.924;2024-01-15T03:04:46;-1.60;99.90
3134;DHT22;1577;49.912;10.924;2024-01-15T03:07:12;-1.60;99.90
3134;DHT22;1577;49.912;10.924;2024-01-15T03:09:37;-1.60;99.90
3134;DHT22;1577;49.912;10.924;2024-01-15T03:12:03;-1.60;99.90
3134;DHT22;1577;49.912;10.924;2024-01-15T03:14:29;-1.60;99.90
3134;DHT22;1577;49.912;10.924;2024-01-15T03:16:55;-1.60;99.90
3134;DHT22;1577;49.912;10.924;2024-01-15T03:19:20;-1.60;99.90
3134;DHT22;1577;49.912;10.924;2024-01-15T03:21:46;-1.60;99.90
3134;DHT22;1577;49.912;10.924;2024-01-15T03:24:11;-1.60;99.90
3134;DHT22;1577;49.912;10.924;2024-01-15T03:26:37;-1.60;99.90
3134;DHT22;1577;49.912;10.924;2024-01-15T03:29:03;-1.60;99.90
3134;DHT22;1577;49.912;10.924;2024-01-15T03:31:28;-1.60;99.90
3134;DHT22;1577;49.912;10.924;2024-01-15T03:33:54;-1.40;99.90
3134;DHT22;1577;49.912;10.924;2024-01-15T03:36:19;-1.50;99.90
3134;DHT22;1577;49.912;10.924;2024-01-15T03:38:45;-1.50;99.90
3134;DHT22;1577;49.912;10.924;2024-01-15T03:41:11;-1.50;99.90
3134;DHT22;1577;49.912;10.924;2024-01-15T03:43:36;-1.60;99.90
3134;DHT22;1577;49.912;10.924;2024-01-15T03:46:02;-1.60;99.90
3134;DHT22;1577;49.912;10.924;2024-01-15T03:48:28;-1.60;99.90
3134;DHT22;1577;49.912;10.924;2024-01-15T03:50:53;-1.60;99.90
3134;DHT22;1577;49.912;10.924;2024-01-15T03:53:19;-1.50;99.90
3134;DHT22;1577;49.912;10.924;2024-01-15T03:55:45;-1.50;99.90
3134;DHT22;1577;49.912;10.924;2024-01-15T03:58:10;-1.40;99.90
3134;DHT22;1577;49.912;10.924;2024-01-15T04:00:36;-1.50;99.90
3134;DHT22;1577;49.912;10.924;2024-01-15T04:03:02;-1.50;99.90
3134;DHT22;1577;49.912;10.924;2024-01-15T04:05:27;-1.40;99.90
3134;DHT22;1577;49.912;10.924;2024-01-15T04:07:53;-1.40;99.90
3134;DHT22;1577;49.912;10.924;2024-01-15T04:10:18;-1.40;99.90
3134;DHT22;1577;49.912;10.924;2024-01-15T04:12:44;-1.40;99.90
3134;DHT22;1577;49.912;10.924;2024-01-15T04:15:12;-1.40;99.90
3134;DHT22;1577;49.912;10.924;2024-01-15T04:17:38;-1.40;99.90
3134;DHT22;1577;49.912;10.924;2024-01-15T04:20:03;-1.40;99.90
3134;DHT22;1577;49.912;10.924;2024-01-15T04:22:29;-1.40;99.90
3134;DHT22;1577;49.912;10.924;2024-01-15T04:24:55;-1.40;99.90
3134;DHT22;1577;49.912;10.924;2024-01-15T04:27:20;-1.40;99.90
3134;DHT22;1577;49.912;10.924;2024-01-15T04:29:46;-1.40;99.90
3134;DHT22;1577;49.912;10.924;2024-01-15T04:32:12;-1.40;99.90
3134;DHT22;1577;49.912;10.924;2024-01-15T04:34:37;-1.30;99.90
3134;DHT22;1577;49.912;10.924;2024-01-15T04:37:03;-1.30;99.90
3134;DHT22;1577;49.912;10.924;2024-01-15T04:39:29;-1.40;99.90
3134;DHT22;1577;49.912;10.924;2024-01-15T04:41:54;-1.40;99.90
3134;DHT22;1577;49.912;10.924;2024-01-15T04:44:20;-1.40;99.90
3134;DHT22;1577;49.912;10.924;2024-01-15T04:46:45;-1.40;99.90
3134;DHT22;1577;49.912;10.924;2024-01-15T04:49:11;-1.30;99.90
3134;DHT22;1577;49.912;10.924;2024-01-15T04:51:37;-1.40;99.90
3134;DHT22;1577;49.912;10.924;2024-01-15T04:54:03;-1.40;99.90
3134;DHT22;1577;49.912;10.924;2024-01-15T04:56:29;-1.50;99.90
3134;DHT22;1577;49.912;10.924;2024-01-15T04:58:54;-1.50;99.90
3134;DHT22;1577;49.912;10.924;2024-01-15T05:01:20;-1.60;99.90
3134;DHT22;1577;49.912;10.924;2024-01-15T05:03:45;-1.60;99.90
3134;DHT22;1577;49.912;10.924;2024-01-15T05:06:11;-1.60;99.90
3134;DHT22;1577;49.912;10.924;2024-01-15T05:08:37;-1.60;99.90
3134;DHT22;1577;49.912;10.924;2024-01-15T05:11:02;-1.50;99.90
3134;DHT22;1577;49.912;10.924;2024-01-15T05:13:28;-1.60;99.90
3134;DHT22;1577;49.912;10.924;2024-01-15T05:15:53;-1.50;99.90
3134;DHT22;1577;49.912;10.924;2024-01-15T05:18:19;-1.50;99.90
3134;DHT22;1577;49.912;10.924;2024-01-15T05:20:45;-1.50;99.90
3134;DHT22;1577;49.912;10.924;2024-01-15T05:23:10;-1.50;99.90
3134;DHT22;1577;49.912;10.924;2024-01-15T05:25:36;-1.50;99.90
3134;DHT22;1577;49.912;10.924;2024-01-15T05:28:01;-1.50;99.90
3134;DHT22;1577;49.912;10.924;2024-01-15T05:30:27;-1.50;99.90
3134;DHT22;1577;49.912;10.924;2024-01-15T05:32:53;-1.50;99.90
3134;DHT22;1577;49.912;10.924;2024-01-15T05:35:19;-1.50;99.90
3134;DHT22;1577;49.912;10.924;2024-01-15T05:37:45;-1.50;99.90
3134;DHT22;1577;49.912;10.924;2024-01-15T05:40:12;-1.50;99.90
3134;DHT22;1577;49.912;10.924;2024-01-15T05:42:38;-1.50;99.90
3134;DHT22;1577;49.912;10.924;2024-01-15T05:45:05;-1.50;99.90
3134;DHT22;1577;49.912;10.924;2024-01-15T05:47:31;-1.40;99.90
3134;DHT22;1577;49.912;10.924;2024-01-15T05:49:57;-1.40;99.90
3134;DHT22;1577;49.912;10.924;2024-01-15T05:52:23;-1.40;99.90
3134;DHT22;1577;49.912;10.924;2024-01-15T05:54:50;-1.40;99.90
3134;DHT22;1577;49.912;10.924;2024-01-15T05:57:15;-1.40;99.90
3134;DHT22;1577;49.912;10.924;2024-01-15T05:59:42;-1.30;99.90
3134;DHT22;1577;49.912;10.924;2024-01-15T06:02:08;-1.30;99.90
3134;DHT22;1577;49.912;10.924;2024-01-15T06:04:33;-1.20;99.90
3134;DHT22;1577;49.912;10.924;2024-01-15T06:06:59;-1.30;99.90
3134;DHT22;1577;49.912;10.924;2024-01-15T06:09:24;-1.20;99.90
3134;DHT22;1577;49.912;10.924;2024-01-15T06:11:50;-1.20;99.90
3134;DHT22;1577;49.912;10.924;2024-01-15T06:14:15;-1.30;99.90
3134;DHT22;1577;49.912;10.924;2024-01-15T06:16:41;-1.20;99.90
3134;DHT22;1577;49.912;10.924;2024-01-15T06:19:07;-1.20;99.90
3134;DHT22;1577;49.912;10.924;2024-01-15T06:21:32;-1.20;99.90
3134;DHT22;1577;49.912;10.924;2024-01-15T06:23:58;-1.20;99.90
3134;DHT22;1577;49.912;10.924;2024-01-15T06:26:23;-1.20;99.90
3134;DHT22;1577;49.912;10.924;2024-01-15T06:28:49;-1.20;99.90
3134;DHT22;1577;49.912;10.924;2024-01-15T06:31:14;-1.20;99.90
3134;DHT22;1577;49.912;10.924;2024-01-15T06:33:40;-1.20;99.90
3134;DHT22;1577;49.912;10.924;2024-01-15T06:36:06;-1.10;99.90
3134;DHT22;1577;49.912;10.924;2024-01-15T06:38:32;-1.10;99.90
3134;DHT22;1577;49.912;10.924;2024-01-15T06:40:57;-1.10;99.90
3134;DHT22;1577;49.912;10.924;2024-01-15T06:43:23;-1.10;99.90
3134;DHT22;1577;49.912;10.924;2024-01-15T06:45:49;-1.10;99.90
3134;DHT22;1577;49.912;10.924;2024-01-15T06:48:15;-1.10;99.90
3134;DHT22;1577;49.912;10.924;2024-01-15T06:50:42;-1.00;99.90
3134;DHT22;1577;49.912;10.924;2024-01-15T06:53:07;-1.10;99.90
3134;DHT22;1577;49.912;10.924;2024-01-15T06:55:33;-1.00;99.90
3134;DHT22;1577;49.912;10.924;2024-01-15T06:57:59;-1.00;99.90
3134;DHT22;1577;49.912;10.924;2024-01-15T07:00:25;-1.00;99.90
3134;DHT22;1577;49.912;10.924;2024-01-15T07:02:50;-0.90;99.90
3134;DHT22;1577;49.912;10.924;2024-01-15T07:05:17;-1.00;99.90
3134;DHT22;1577;49.912;10.924;2024-01-15T07:07:42;-1.00;99.90
3134;DHT22;1577;49.912;10.924;2024-01-15T07:10:09;-1.00;99.90
3134;DHT22;1577;49.912;10.924;2024-01-15T07:12:35;-1.00;99.90
3134;DHT22;1577;49.912;10.924;2024-01-15T07:15:01;-1.00;99.90
3134;DHT22;1577;49.912;10.924;2024-01-15T07:17:27;-1.00;99.90
3134;DHT22;1577;49.912;10.924;2024-01-15T07:19:53;-1.10;99.90
3134;DHT22;1577;49.912;10.924;2024-01-15T07:22:18;-1.10;99.90
3134;DHT22;1577;49.912;10.924;2024-01-15T07:24:45;-1.00;99.90
3134;DHT22;1577;49.912;10.924;2024-01-15T07:27:11;-1.00;99.90
3134;DHT22;1577;49.912;10.924;2024-01-15T07:29:37;-1.00;99.90
3134;DHT22;1577;49.912;10.924;2024-01-15T07:32:03;-0.90;99.90
3134;DHT22;1577;49.912;10.924;2024-01-15T07:34:29;-0.90;99.90
3134;DHT22;1577;49.912;10.924;2024-01-15T07:36:54;-0.90;99.90
3134;DHT22;1577;49.912;10.924;2024-01-15T07:39:20;-0.90;99.90
3134;DHT22;1577;49.912;10.924;2024-01-15T07:41:46;-1.00;99.90
3134;DHT22;1577;49.912;10.924;2024-01-15T07:44:11;-1.00;99.90
3134;DHT22;1577;49.912;10.924;2024-01-15T07:46:37;-1.00;99.90
3134;DHT22;1577;49.912;10.924;2024-01-15T07:49:02;-1.00;99.90
3134;DHT22;1577;49.912;10.924;2024-01-15T07:51:28;-1.00;99.90
3134;DHT22;1577;49.912;10.924;2024-01-15T07:53:54;-0.90;99.90
3134;DHT22;1577;49.912;10.924;2024-01-15T07:56:21;-0.90;99.90
3134;DHT22;1577;49.912;10.924;2024-01-15T07:58:47;-0.90;99.90
3134;DHT22;1577;49.912;10.924;2024-01-15T08:01:12;-0.90;99.90
3134;DHT22;1577;49.912;10.924;2024-01-15T08:03:38;-0.90;99.90
3134;DHT22;1577;49.912;10.924;2024-01-15T08:06:05;-0.90;99.90
3134;DHT22;1577;49.912;10.924;2024-01-15T08:08:30;-0.90;99.90
3134;DHT22;1577;49.912;10.924;2024-01-15T08:10:56;-0.90;99.90
3134;DHT22;1577;49.912;10.924;2024-01-15T08:13:21;-0.90;99.90
3134;DHT22;1577;49.912;10.924;2024-01-15T08:15:47;-0.80;99.90
3134;DHT22;1577;49.912;10.924;2024-01-15T08:18:13;-0.80;99.90
3134;DHT22;1577;49.912;10.924;2024-01-15T08:20:39;-0.80;99.90
3134;DHT22;1577;49.912;10.924;2024-01-15T08:23:05;-0.70;99.90
3134;DHT22;1577;49.912;10.924;2024-01-15T08:25:30;-0.70;99.90
3134;DHT22;1577;49.912;10.924;2024-01-15T08:27:57;-0.60;99.90
3134;DHT22;1577;49.912;10.924;2024-01-15T08:30:25;-0.50;99.90
3134;DHT22;1577;49.912;10.924;2024-01-15T08:32:53;-0.50;99.90
3134;DHT22;1577;49.912;10.924;2024-01-15T08:35:19;-0.50;99.90
3134;DHT22;1577;49.912;10.924;2024-01-15T08:37:54;-0.50;99.90
3134;DHT22;1577;49.912;10.924;2024-01-15T08:40:20;-0.50;99.90
3134;DHT22;1577;49.912;10.924;2024-01-15T08:42:46;-0.50;99.90
3134;DHT22;1577;49.912;10.924;2024-01-15T08:45:11;-0.40;99.90
3134;DHT22;1577;49.912;10.924;2024-01-15T08:47:37;-0.30;99.90
3134;DHT22;1577;49.912;10.924;2024-01-15T08:50:03;-0.30;99.90
3134;DHT22;1577;49.912;10.924;2024-01-15T08:52:29;-0.30;99.90
3134;DHT22;1577;49.912;10.924;2024-01-15T08:54:58;-0.30;99.90
3134;DHT22;1577;49.912;10.924;2024-01-15T08:57:23;-0.20;99.90
3134;DHT22;1577;49.912;10.924;2024-01-15T08:59:49;-0.20;99.90
3134;DHT22;1577;49.912;10.924;2024-01-15T09:02:14;-0.20;99.90
3134;DHT22;1577;49.912;10.924;2024-01-15T09:04:41;-0.30;99.90
3134;DHT22;1577;49.912;10.924;2024-01-15T09:07:07;-0.30;99.90
3134;DHT22;1577;49.912;10.924;2024-01-15T09:09:33;-0.30;99.90
3134;DHT22;1577;49.912;10.924;2024-01-15T09:11:59;-0.30;99.90
3134;DHT22;1577;49.912;10.924;2024-01-15T09:14:25;-0.20;99.90
3134;DHT22;1577;49.912;10.924;2024-01-15T09:16:52;-0.20;99.90
3134;DHT22;1577;49.912;10.924;2024-01-15T09:19:18;-0.20;99.90
3134;DHT22;1577;49.912;10.924;2024-01-15T09:21:44;-0.20;99.90
3134;DHT22;1577;49.912;10.924;2024-01-15T09:24:10;-0.10;99.90
3134;DHT22;1577;49.912;10.924;2024-01-15T09:26:35;0.00;99.90
3134;DHT22;1577;49.912;10.924;2024-01-15T09:29:01;0.00;99.90
3134;DHT22;1577;49.912;10.924;2024-01-15T09:31:26;0.00;99.90
3134;DHT22;1577;49.912;10.924;2024-01-15T09:33:52;0.00;99.90
3134;DHT22;1577;49.912;10.924;2024-01-15T09:36:21;0.00;99.90
3134;DHT22;1577;49.912;10.924;2024-01-15T09:38:48;0.00;99.90
3134;DHT22;1577;49.912;10.924;2024-01-15T09:41:14;0.00;99.90
3134;DHT22;1577;49.912;10.924;2024-01-15T09:43:40;0.00;99.90
3134;DHT22;1577;49.912;10.924;2024-01-15T09:46:06;0.10;99.90
3134;DHT22;1577;49.912;10.924;2024-01-15T09:48:32;0.10;99.90
3134;DHT22;1577;49.912;10.924;2024-01-15T09:51:02;0.20;99.90
3134;DHT22;1577;49.912;10.924;2024-01-15T09:53:28;0.20;99.90
3134;DHT22;1577;49.912;10.924;2024-01-15T09:55:54;0.30;99.90
3134;DHT22;1577;49.912;10.924;2024-01-15T09:58:19;0.30;99.90
3134;DHT22;1577;49.912;10.924;2024-01-15T10:00:47;0.30;99.90
3134;DHT22;1577;49.912;10.924;2024-01-15T10:03:15;0.30;99.90
3134;DHT22;1577;49.912;10.924;2024-01-15T10:05:41;0.40;99.90
3134;DHT22;1577;49.912;10.924;2024-01-15T10:08:07;0.30;99.90
3134;DHT22;1577;49.912;10.924;2024-01-15T10:10:32;0.20;99.90
3134;DHT22;1577;49.912;10.924;2024-01-15T10:12:58;0.20;99.90
3134;DHT22;1577;49.912;10.924;2024-01-15T10:15:28;0.30;99.90
3134;DHT22;1577;49.912;10.924;2024-01-15T10:17:54;0.40;99.90
3134;DHT22;1577;49.912;10.924;2024-01-15T10:20:20;0.30;99.90
3134;DHT22;1577;49.912;10.924;2024-01-15T10:22:47;0.30;99.90
3134;DHT22;1577;49.912;10.924;2024-01-15T10:25:14;0.40;99.90
3134;DHT22;1577;49.912;10.924;2024-01-15T10:27:40;0.40;99.90
3134;DHT22;1577;49.912;10.924;2024-01-15T10:30:10;0.40;99.90
3134;DHT22;1577;49.912;10.924;2024-01-15T10:32:36;0.40;99.90
3134;DHT22;1577;49.912;10.924;2024-01-15T10:35:01;0.50;99.90
3134;DHT22;1577;49.912;10.924;2024-01-15T10:37:28;0.50;99.90
3134;DHT22;1577;49.912;10.924;2024-01-15T10:39:53;0.60;99.90
3134;DHT22;1577;49.912;10.924;2024-01-15T10:42:19;0.50;99.90
3134;DHT22;1577;49.912;10.924;2024-01-15T10:44:45;0.50;99.90
3134;DHT22;1577;49.912;10.924;2024-01-15T10:47:13;0.40;99.90
3134;DHT22;1577;49.912;10.924;2024-01-15T10:49:40;0.50;99.90
3134;DHT22;1577;49.912;10.924;2024-01-15T10:52:06;0.40;99.90
3134;DHT22;1577;49.912;10.924;2024-01-15T10:54:32;0.40;99.90
3134;DHT22;1577;49.912;10.924;2024-01-15T10:56:59;0.50;99.90
3134;DHT22;1577;49.912;10.924;2024-01-15T10:59:25;0.50;99.90
3134;DHT22;1577;49.912;10.924;2024-01-15T11:01:51;0.50;99.90
3134;DHT22;1577;49.912;10.924;2024-01-15T11:04:21;0.60;99.90
3134;DHT22;1577;49.912;10.924;2024-01-15T11:06:51;0.70;99.90
3134;DHT22;1577;49.912;10.924;2024-01-15T11:09:17;0.70;99.90
3134;DHT22;1577;49.912;10.924;2024-01-15T11:11:44;0.70;99.90
3134;DHT22;1577;49.912;10.924;2024-01-15T11:14:47;0.80;99.90
3134;DHT22;1577;49.912;10.924;2024-01-15T11:17:14;0.80;99.90
3134;DHT22;1577;49.912;10.924;2024-01-15T11:22:09;0.60;99.90
3134;DHT22;1577;49.912;10.924;2024-01-15T11:24:39;0.60;99.90
3134;DHT22;1577;49.912;10.924;2024-01-15T11:27:06;0.70;99.90
3134;DHT22;1577;49.912;10.924;2024-01-15T11:29:36;0.80;99.90
3134;DHT22;1577;49.912;10.924;2024-01-15T11:32:03;0.80;99.90
3134;DHT22;1577;49.912;10.924;2024-01-15T11:34:55;0.80;99.90
3134;DHT22;1577;49.912;10.924;2024-01-15T11:37:23;0.80;99.90
3134;DHT22;1577;49.912;10.924;2024-01-15T11:39:52;0.90;99.90
3134;DHT22;1577;49.912;10.924;2024-01-15T11:42:17;1.00;99.90
3134;DHT22;1577;49.912;10.924;2024-01-15T11:44:44;1.00;99.90
3134;DHT22;1577;49.912;10.924;2024-01-15T11:47:12;1.10;99.90
3134;DHT22;1577;49.912;10.924;2024-01-15T11:52:22;1.20;99.90
3134;DHT22;1577;49.912;10.924;2024-01-15T11:57:46;1.30;99.90
3134;DHT22;1577;49.912;10.924;2024-01-15T12:00:13;1.20;99.90
3134;DHT22;1577;49.912;10.924;2024-01-15T12:02:40;1.20;99.90
3134;DHT22;1577;49.912;10.924;2024-01-15T12:05:07;1.10;99.90
3134;DHT22;1577;49.912;10.924;2024-01-15T12:07:33;1.00;99.90
3134;DHT22;1577;49.912;10.924;2024-01-15T12:09:59;1.00;99.90
3134;DHT22;1577;49.912;10.924;2024-01-15T12:12:37;0.90;99.90
3134;DHT22;1577;49.912;10.924;2024-01-15T12:15:05;0.90;99.90
3134;DHT22;1577;49.912;10.924;2024-01-15T12:17:31;1.00;99.90
3134;DHT22;1577;49.912;10.924;2024-01-15T12:19:57;1.10;99.90
3134;DHT22;1577;49.912;10.924;2024-01-15T12:22:22;1.20;99.90
3134;DHT22;1577;49.912;10.924;2024-01-15T12:24:48;1.20;99.90
3134;DHT22;1577;49.912;10.924;2024-01-15T12:27:14;1.40;99.90
3134;DHT22;1577;49.912;10.924;2024-01-15T12:29:39;1.50;99.90
3134;DHT22;1577;49.912;10.924;2024-01-15T12:32:05;1.50;99.90
3134;DHT22;1577;49.912;10.924;2024-01-15T12:34:32;1.60;99.90
3134;DHT22;1577;49.912;10.924;2024-01-15T12:36:58;1.60;99.90
3134;DHT22;1577;49.912;10.924;2024-01-15T12:39:24;1.60;99.90
3134;DHT22;1577;49.912;10.924;2024-01-15T12:41:51;1.60;99.90
3134;DHT22;1577;49.912;10.924;2024-01-15T12:44:16;1.60;99.90
3134;DHT22;1577;49.912;10.924;2024-01-15T12:46:42;1.50;99.90
3134;DHT22;1577;49.912;10.924;2024-01-15T12:49:08;1.50;99.90
3134;DHT22;1577;49.912;10.924;2024-01-15T12:51:37;1.40;99.90
3134;DHT22;1577;49.912;10.924;2024-01-15T12:54:03;1.40;99.90
3134;DHT22;1577;49.912;10.924;2024-01-15T12:56:29;1.40;99.90
3134;DHT22;1577;49.912;10.924;2024-01-15T12:58:54;1.30;99.90
3134;DHT22;1577;49.912;10.924;2024-01-15T13:01:20;1.30;99.90
3134;DHT22;1577;49.912;10.924;2024-01-15T13:03:47;1.30;99.90
3134;DHT22;1577;49.912;10.924;2024-01-15T13:06:12;1.30;99.90
3134;DHT22;1577;49.912;10.924;2024-01-15T13:08:38;1.40;99.90
3134;DHT22;1577;49.912;10.924;2024-01-15T13:11:04;1.40;99.90
3134;DHT22;1577;49.912;10.924;2024-01-15T13:13:29;1.50;99.90
3134;DHT22;1577;49.912;10.924;2024-01-15T13:15:56;1.50;99.90
3134;DHT22;1577;49.912;10.924;2024-01-15T13:18:22;1.50;99.90
3134;DHT22;1577;49.912;10.924;2024-01-15T13:20:47;1.60;99.90
3134;DHT22;1577;49.912;10.924;2024-01-15T13:23:13;1.50;99.90
3134;DHT22;1577;49.912;10.924;2024-01-15T13:25:39;1.50;99.90
3134;DHT22;1577;49.912;10.924;2024-01-15T13:28:06;1.50;99.90
3134;DHT22;1577;49.912;10.924;2024-01-15T13:30:32;1.50;99.90
3134;DHT22;1577;49.912;10.924;2024-01-15T13:32:57;1.50;99.90
3134;DHT22;1577;49.912;10.924;2024-01-15T13:35:29;1.50;99.90
3134;DHT22;1577;49.912;10.924;2024-01-15T13:37:54;1.50;99.90
3134;DHT22;1577;49.912;10.924;2024-01-15T13:40:20;1.50;99.90
3134;DHT22;1577;49.912;10.924;2024-01-15T13:42:48;1.40;99.90
3134;DHT22;1577;49.912;10.924;2024-01-15T13:45:14;1.40;99.90
3134;DHT22;1577;49.912;10.924;2024-01-15T13:47:40;1.40;99.90
3134;DHT22;1577;49.912;10.924;2024-01-15T13:50:07;1.40;99.90
3134;DHT22;1577;49.912;10.924;2024-01-15T13:52:33;1.50;99.90
3134;DHT22;1577;49.912;10.924;2024-01-15T13:54:59;1.50;99.90
3134;DHT22;1577;49.912;10.924;2024-01-15T13:57:24;1.50;99.90
3134;DHT22;1577;49.912;10.924;2024-01-15T13:59:50;1.50;99.90
3134;DHT22;1577;49.912;10.924;2024-01-15T14:02:15;1.50;99.90
3134;DHT22;1577;49.912;10.924;2024-01-15T14:04:41;1.50;99.90
3134;DHT22;1577;49.912;10.924;2024-01-15T14:07:07;1.60;99.90
3134;DHT22;1577;49.912;10.924;2024-01-15T14:09:32;1.50;99.90
3134;DHT22;1577;49.912;10.924;2024-01-15T14:11:58;1.50;99.90
3134;DHT22;1577;49.912;10.924;2024-01-15T14:14:24;1.50;99.90
3134;DHT22;1577;49.912;10.924;2024-01-15T14:16:49;1.30;99.90
3134;DHT22;1577;49.912;10.924;2024-01-15T14:19:15;1.40;99.90
3134;DHT22;1577;49.912;10.924;2024-01-15T14:21:41;1.40;99.90
3134;DHT22;1577;49.912;10.924;2024-01-15T14:24:06;1.40;99.90
3134;DHT22;1577;49.912;10.924;2024-01-15T14:26:32;1.50;99.90
3134;DHT22;1577;49.912;10.924;2024-01-15T14:28:58;1.40;99.90
3134;DHT22;1577;49.912;10.924;2024-01-15T14:31:26;1.50;99.90
3134;DHT22;1577;49.912;10.924;2024-01-15T14:33:54;1.50;99.90
3134;DHT22;1577;49.912;10.924;2024-01-15T14:36:20;1.50;99.90
3134;DHT22;1577;49.912;10.924;2024-01-15T14:38:46;1.50;99.90
3134;DHT22;1577;49.912;10.924;2024-01-15T14:41:12;1.50;99.90
3134;DHT22;1577;49.912;10.924;2024-01-15T14:43:37;1.50;99.90
3134;DHT22;1577;49.912;10.924;2024-01-15T14:46:03;1.50;99.90
3134;DHT22;1577;49.912;10.924;2024-01-15T14:48:28;1.50;99.90
3134;DHT22;1577;49.912;10.924;2024-01-15T14:50:55;1.50;99.90
3134;DHT22;1577;49.912;10.924;2024-01-15T14:53:20;1.50;99.90
3134;DHT22;1577;49.912;10.924;2024-01-15T14:55:47;1.30;99.90
3134;DHT22;1577;49.912;10.924;2024-01-15T14:58:12;1.20;99.90
3134;DHT22;1577;49.912;10.924;2024-01-15T15:00:38;1.10;99.90
3134;DHT22;1577;49.912;10.924;2024-01-15T15:03:03;1.00;99.90
3134;DHT22;1577;49.912;10.924;2024-01-15T15:05:29;0.90;99.90
3134;DHT22;1577;49.912;10.924;2024-01-15T15:07:55;0.90;99.90
3134;DHT22;1577;49.912;10.924;2024-01-15T15:10:21;0.80;99.90
3134;DHT22;1577;49.912;10.924;2024-01-15T15:12:46;0.80;99.90
3134;DHT22;1577;49.912;10.924;2024-01-15T15:15:12;0.80;99.90
3134;DHT22;1577;49.912;10.924;2024-01-15T15:17:39;0.80;99.90
3134;DHT22;1577;49.912;10.924;2024-01-15T15:20:06;0.70;99.90
3134;DHT22;1577;49.912;10.924;2024-01-15T15:22:32;0.70;99.90
3134;DHT22;1577;49.912;10.924;2024-01-15T15:24:57;0.70;99.90
3134;DHT22;1577;49.912;10.924;2024-01-15T15:27:23;0.70;99.90
3134;DHT22;1577;49.912;10.924;2024-01-15T15:29:49;0.70;99.90
3134;DHT22;1577;49.912;10.924;2024-01-15T15:32:15;0.70;99.90
3134;DHT22;1577;49.912;10.924;2024-01-15T15:34:41;0.70;99.90
3134;DHT22;1577;49.912;10.924;2024-01-15T15:37:07;0.70;99.90
3134;DHT22;1577;49.912;10.924;2024-01-15T15:39:32;0.70;99.90
3134;DHT22;1577;49.912;10.924;2024-01-15T15:41:58;0.70;99.90
3134;DHT22;1577;49.912;10.924;2024-01-15T15:44:24;0.70;99.90
3134;DHT22;1577;49.912;10.924;2024-01-15T15:46:49;0.70;99.90
3134;DHT22;1577;49.912;10.924;2024-01-15T15:49:15;0.70;99.90
3134;DHT22;1577;49.912;10.924;2024-01-15T15:51:41;0.70;99.90
3134;DHT22;1577;49.912;10.924;2024-01-15T15:54:06;0.70;99.90